KGSP

Greenville/Spartanburg

Airport
ICAO code
KGSP
Summary
ICAO Region
NAM
ICAO Territory
Location

Greer, South Carolina,

Elevation
964 ft
Coordinates
34° 53' 45" N , 82° 13' 8" W
KCC
Cfa
Airport RE
Engineered Materials Arresting System
Metar
Observation
KGSP 130153Z 03007KT 10SM SCT050 BKN070 OVC100 23/17 A3007 RMK AO2 SLP169 T02330172
Station
Greer, Greenville-Spartanburg Airport
Date/Time
2022-08-13 01:53:00
Wind direction
30°
Wind speed
07 kts
Lowest cloud amount
scattered clouds
Temperature
23.3°C
Dew point
17.2°C
Humidity
68%
Weather condition
n/a

Description

Greenville-Spartanburg International Airport, also known as GSP International Airport or Roger Milliken Field, is a public airport located in unincorporated Greenville and Spartanburg counties in South Carolina, United States, 5 km south of central Greer; the airport serves Greenville and Spartanburg in the Upstate region of South Carolina.

Climatology

Humid “subtropical” climate (Köppen climate classification Cfa) - characterized by hot, humid summers and cool winters. Significant amounts of precipitation occur in all seasons in most areas. Winter rainfall (and sometimes snowfall) is associated with large storms that the westerlies steer from west to east. Most summer rainfall occurs during thunderstorms and occasional tropical storms (hurricanes).

Airport map

Aerial View

SKYbrary Partners:

Safety knowledge contributed by: